createdAt,value
2019-05-16T00:00:21.838Z,99873.48
2019-05-16T00:02:50.377Z,99871.13
2019-05-16T00:05:18.891Z,99873.08
2019-05-16T00:07:49.256Z,99867.20
2019-05-16T00:10:18.729Z,99864.14
2019-05-16T00:12:48.672Z,99866.39
2019-05-16T00:15:18.201Z,99867.04
2019-05-16T00:17:48.808Z,99861.03
2019-05-16T00:20:19.080Z,99858.53
2019-05-16T00:22:48.484Z,99854.05
2019-05-16T00:25:17.931Z,99848.19
2019-05-16T00:27:47.970Z,99846.34
2019-05-16T00:30:18.105Z,99846.33
2019-05-16T00:32:48.177Z,99844.52
2019-05-16T00:35:18.276Z,99839.80
2019-05-16T00:37:48.337Z,99831.30
2019-05-16T00:40:18.761Z,99829.73
2019-05-16T00:42:49.254Z,99837.79
2019-05-16T00:45:19.789Z,99824.91
2019-05-16T00:47:48.417Z,99827.88
2019-05-16T00:50:18.237Z,99822.20
2019-05-16T00:52:48.746Z,99818.73
2019-05-16T00:55:17.957Z,99820.15
2019-05-16T00:57:48.271Z,99818.20
2019-05-16T01:00:18.446Z,99811.69
2019-05-16T01:02:48.620Z,99815.21
2019-05-16T01:05:19.122Z,99817.29
2019-05-16T01:07:48.031Z,99815.80
2019-05-16T01:10:18.301Z,99811.84
2019-05-16T01:12:48.071Z,99806.09
2019-05-16T01:15:18.377Z,99806.63
2019-05-16T01:17:48.366Z,99812.09
2019-05-16T01:20:19.264Z,99807.69
2019-05-16T01:22:49.058Z,99802.71
2019-05-16T01:25:19.513Z,99804.67
2019-05-16T01:27:47.772Z,99799.14
2019-05-16T01:30:18.671Z,99792.72
2019-05-16T01:32:48.986Z,99794.07
2019-05-16T01:35:18.866Z,99786.33
2019-05-16T01:37:48.843Z,99784.00
2019-05-16T01:40:18.857Z,99786.33
2019-05-16T01:42:49.019Z,99786.74
2019-05-16T01:45:19.606Z,99785.22
2019-05-16T01:47:48.361Z,99783.98
2019-05-16T01:50:18.107Z,99783.52
2019-05-16T01:52:48.661Z,99783.97
2019-05-16T01:55:18.664Z,99778.39
2019-05-16T01:57:48.089Z,99778.55
2019-05-16T02:00:23.528Z,99776.27
2019-05-16T02:02:48.788Z,99775.76
2019-05-16T02:05:18.774Z,99770.09
2019-05-16T02:07:48.060Z,99767.98
2019-05-16T02:10:18.244Z,99771.05
2019-05-16T02:12:48.985Z,99769.34
2019-05-16T02:15:18.247Z,99763.02
2019-05-16T02:17:48.479Z,99767.10
2019-05-16T02:20:17.988Z,99762.77
2019-05-16T02:22:48.239Z,99763.67
2019-05-16T02:25:18.572Z,99758.86
2019-05-16T02:27:48.902Z,99760.50
2019-05-16T02:30:21.281Z,99758.20
2019-05-16T02:32:51.897Z,99752.81
2019-05-16T02:35:21.058Z,99752.47
2019-05-16T02:37:54.767Z,99750.89
2019-05-16T02:40:23.179Z,99749.38
2019-05-16T02:42:51.755Z,99751.92
2019-05-16T02:45:24.138Z,99751.92
2019-05-16T02:47:51.348Z,99751.92
2019-05-16T02:50:22.344Z,99753.08
2019-05-16T02:52:51.762Z,99747.19
2019-05-16T02:55:21.606Z,99750.59
2019-05-16T02:57:50.930Z,99750.14
2019-05-16T03:00:22.995Z,99743.97
2019-05-16T03:02:51.922Z,99741.00
2019-05-16T03:05:20.951Z,99740.16
2019-05-16T03:07:52.178Z,99738.39
2019-05-16T03:10:20.435Z,99731.43
2019-05-16T03:12:52.033Z,99730.45
2019-05-16T03:15:21.732Z,99732.12
2019-05-16T03:17:52.843Z,99726.80
2019-05-16T03:20:24.612Z,99724.57
2019-05-16T03:22:55.039Z,99724.92
2019-05-16T03:25:23.433Z,99726.98
2019-05-16T03:27:51.822Z,99724.64
2019-05-16T03:30:23.677Z,99724.08
2019-05-16T03:32:54.671Z,99721.31
2019-05-16T03:35:24.592Z,99714.73
2019-05-16T03:37:57.039Z,99720.80
2019-05-16T03:40:25.428Z,99721.53
2019-05-16T03:42:55.585Z,99718.72
2019-05-16T03:45:24.061Z,99715.13
2019-05-16T03:47:52.459Z,99718.25
2019-05-16T03:50:21.794Z,99712.12
2019-05-16T03:52:50.983Z,99713.83
2019-05-16T03:55:21.404Z,99709.86
2019-05-16T03:57:51.662Z,99705.38
2019-05-16T04:00:22.959Z,99704.70
2019-05-16T04:02:52.267Z,99702.32
2019-05-16T04:05:21.265Z,99697.38
2019-05-16T04:07:51.586Z,99694.22
2019-05-16T04:10:21.626Z,99691.61
2019-05-16T04:12:51.319Z,99693.41
2019-05-16T04:15:21.463Z,99687.81
2019-05-16T04:17:51.223Z,99684.75
2019-05-16T04:20:21.510Z,99683.50
2019-05-16T04:22:51.291Z,99688.77
2019-05-16T04:25:21.624Z,99687.46
2019-05-16T04:27:50.269Z,99687.03
2019-05-16T04:30:21.871Z,99683.17
2019-05-16T04:32:51.101Z,99682.14
2019-05-16T04:35:21.506Z,99682.41
2019-05-16T04:37:51.333Z,99682.30
2019-05-16T04:40:22.002Z,99688.87
2019-05-16T04:42:51.339Z,99689.74
2019-05-16T04:45:21.060Z,99685.42
2019-05-16T04:47:51.311Z,99688.09
2019-05-16T04:50:21.049Z,99688.49
2019-05-16T04:52:51.756Z,99690.69
2019-05-16T04:55:21.009Z,99687.63
2019-05-16T04:57:51.200Z,99682.14
2019-05-16T05:00:21.254Z,99688.82
2019-05-16T05:02:51.868Z,99689.34
2019-05-16T05:05:21.530Z,99687.94
2019-05-16T05:07:51.112Z,99685.22
2019-05-16T05:10:20.825Z,99679.38
2019-05-16T05:12:51.487Z,99684.98
2019-05-16T05:15:21.340Z,99676.70
2019-05-16T05:17:50.370Z,99676.52
2019-05-16T05:20:21.046Z,99677.94
2019-05-16T05:22:50.060Z,99661.38
2019-05-16T05:25:20.399Z,99666.25
2019-05-16T05:27:50.117Z,99663.83
2019-05-16T05:30:19.877Z,99668.88
2019-05-16T05:32:50.209Z,99666.18
2019-05-16T05:35:20.661Z,99668.95
2019-05-16T05:37:50.733Z,99666.48
2019-05-16T05:40:20.066Z,99660.22
2019-05-16T05:42:50.487Z,99662.38
2019-05-16T05:45:20.115Z,99658.69
2019-05-16T05:47:50.536Z,99655.50
2019-05-16T05:50:20.197Z,99661.38
2019-05-16T05:52:51.178Z,99666.59
2019-05-16T05:55:20.091Z,99665.48
2019-05-16T05:57:50.741Z,99665.78
2019-05-16T06:00:21.129Z,99669.61
2019-05-16T06:02:50.789Z,99651.79
2019-05-16T06:05:20.151Z,99651.79
2019-05-16T06:07:50.935Z,99657.42
2019-05-16T06:10:19.896Z,99659.58
2019-05-16T06:12:50.023Z,99656.27
2019-05-16T06:15:20.332Z,99652.95
2019-05-16T06:17:50.819Z,99637.87
2019-05-16T06:20:20.287Z,99628.44
2019-05-16T06:22:50.910Z,99636.06
2019-05-16T06:25:22.582Z,99626.53
2019-05-16T06:27:51.141Z,99628.34
2019-05-16T06:30:21.284Z,99623.03
2019-05-16T06:32:50.171Z,99617.20
2019-05-16T06:35:20.532Z,99622.81
2019-05-16T06:37:50.015Z,99620.42
2019-05-16T06:40:20.282Z,99627.55
2019-05-16T06:42:50.966Z,99620.42
2019-05-16T06:45:20.506Z,99619.77
2019-05-16T06:47:50.420Z,99606.20
2019-05-16T06:50:20.894Z,99608.99
2019-05-16T06:52:50.203Z,99610.16
2019-05-16T06:55:20.504Z,99608.90
2019-05-16T06:57:50.307Z,99606.78
2019-05-16T07:00:21.043Z,99600.55
2019-05-16T07:02:49.921Z,99599.05
2019-05-16T07:05:20.834Z,99600.45
2019-05-16T07:07:50.902Z,99600.44
2019-05-16T07:10:20.354Z,99597.08
2019-05-16T07:12:50.425Z,99600.28
2019-05-16T07:15:20.634Z,99601.44
2019-05-16T07:17:50.710Z,99595.88
2019-05-16T07:20:20.981Z,99593.23
2019-05-16T07:22:50.316Z,99589.81
2019-05-16T07:25:20.791Z,99584.41
2019-05-16T07:27:51.042Z,99581.77
2019-05-16T07:30:20.875Z,99580.49
2019-05-16T07:32:50.160Z,99582.63
2019-05-16T07:35:20.474Z,99578.50
2019-05-16T07:37:49.996Z,99575.31
2019-05-16T07:40:25.683Z,99574.19
2019-05-16T07:42:50.904Z,99571.22
2019-05-16T07:45:20.398Z,99563.27
2019-05-16T07:47:50.913Z,99567.16
2019-05-16T07:50:20.354Z,99568.06
2019-05-16T07:52:51.078Z,99562.73
2019-05-16T07:55:20.847Z,99559.25
2019-05-16T07:57:50.608Z,99559.28
2019-05-16T08:00:21.739Z,99550.13
2019-05-16T08:02:50.573Z,99545.79
2019-05-16T08:05:21.007Z,99543.77
2019-05-16T08:07:51.198Z,99540.30
2019-05-16T08:10:36.838Z,99537.80
2019-05-16T08:12:51.297Z,99533.37
2019-05-16T08:15:21.357Z,99536.61
2019-05-16T08:20:21.297Z,99533.00
2019-05-16T08:22:50.860Z,99524.83
2019-05-16T08:25:20.348Z,99521.98
2019-05-16T08:27:52.016Z,99525.47
2019-05-16T08:30:21.027Z,99515.23
2019-05-16T08:32:52.863Z,99510.58
2019-05-16T08:35:21.044Z,99513.46
2019-05-16T08:40:21.474Z,99505.11
2019-05-16T08:45:21.460Z,99501.48
2019-05-16T08:47:52.506Z,99492.39
2019-05-16T08:50:05.959Z,99507.41
2019-05-16T08:50:10.991Z,99530.47
2019-05-16T08:50:11.720Z,99492.55
2019-05-16T08:50:21.743Z,99481.45
2019-05-16T08:52:52.869Z,99473.01
2019-05-16T08:55:22.569Z,99465.77
2019-05-16T08:57:52.903Z,99472.85
2019-05-16T09:00:22.033Z,99468.91
2019-05-16T09:02:52.509Z,99472.24
2019-05-16T09:05:22.688Z,99461.17
2019-05-16T09:08:00.213Z,99453.19
2019-05-16T09:12:51.290Z,99455.20
2019-05-16T09:15:19.875Z,99451.45
2019-05-16T09:17:48.261Z,99445.00
2019-05-16T09:20:17.483Z,99454.17
2019-05-16T09:22:48.100Z,99456.30
2019-05-16T09:25:18.569Z,99460.46
2019-05-16T09:27:47.142Z,99452.81
2019-05-16T09:30:17.074Z,99444.56
2019-05-16T09:32:47.923Z,99442.66
2019-05-16T09:35:17.163Z,99435.58
2019-05-16T09:37:47.324Z,99427.41
2019-05-16T09:40:17.311Z,99421.94
2019-05-16T09:42:47.364Z,99427.08
2019-05-16T09:45:17.195Z,99427.06
2019-05-16T09:47:48.427Z,99423.98
2019-05-16T09:50:17.398Z,99420.00
2019-05-16T09:52:47.262Z,99425.52
2019-05-16T09:55:17.733Z,99417.97
2019-05-16T09:57:46.855Z,99421.99
2019-05-16T10:00:18.493Z,99407.13
2019-05-16T10:02:47.631Z,99410.45
2019-05-16T10:05:17.076Z,99409.09
2019-05-16T10:07:47.073Z,99402.34
2019-05-16T10:10:17.058Z,99408.66
2019-05-16T10:12:45.544Z,99401.80
2019-05-16T10:15:17.439Z,99401.95
2019-05-16T10:17:47.721Z,99395.41
2019-05-16T10:20:16.857Z,99388.66
2019-05-16T10:22:46.893Z,99391.33
2019-05-16T10:25:19.054Z,99388.33
2019-05-16T10:27:47.503Z,99378.95
2019-05-16T10:30:17.706Z,99374.52
2019-05-16T10:32:47.782Z,99377.18
2019-05-16T10:35:16.878Z,99373.61
2019-05-16T10:37:47.066Z,99367.48
2019-05-16T10:40:18.216Z,99368.09
2019-05-16T10:42:47.380Z,99362.42
2019-05-16T10:45:17.603Z,99356.05
2019-05-16T10:47:48.102Z,99357.91
2019-05-16T10:50:16.777Z,99358.41
2019-05-16T10:52:48.876Z,99339.64
2019-05-16T10:55:17.645Z,99348.34
2019-05-16T10:57:47.520Z,99353.53
2019-05-16T11:00:39.651Z,99358.94
2019-05-16T11:02:47.046Z,99340.67
2019-05-16T11:05:29.396Z,99339.61
2019-05-16T11:07:48.522Z,99329.11
2019-05-16T11:10:17.496Z,99338.32
2019-05-16T11:12:51.826Z,99334.72
2019-05-16T11:15:17.273Z,99328.09
2019-05-16T11:17:45.865Z,99330.89
2019-05-16T11:20:19.612Z,99325.74
2019-05-16T11:22:47.535Z,99316.51
2019-05-16T11:25:24.122Z,99308.89
2019-05-16T11:27:46.882Z,99318.61
2019-05-16T11:30:18.052Z,99316.27
2019-05-16T11:32:47.081Z,99305.82
2019-05-16T11:35:17.308Z,99300.56
2019-05-16T11:37:47.224Z,99286.13
2019-05-16T11:40:18.057Z,99281.34
2019-05-16T11:42:48.726Z,99274.36
2019-05-16T11:45:17.058Z,99277.07
2019-05-16T11:47:47.039Z,99277.95
2019-05-16T11:50:17.707Z,99278.31
2019-05-16T11:52:47.616Z,99259.19
2019-05-16T11:55:16.385Z,99265.47
2019-05-16T11:57:47.335Z,99263.50
2019-05-16T12:00:17.847Z,99276.64
2019-05-16T12:02:47.815Z,99273.08
2019-05-16T12:05:17.237Z,99260.38
2019-05-16T12:07:48.378Z,99253.94
2019-05-16T12:10:16.555Z,99254.43
2019-05-16T12:12:45.054Z,99251.71
2019-05-16T12:15:16.786Z,99239.11
2019-05-16T12:17:43.738Z,99240.89
2019-05-16T12:20:12.676Z,99234.69
2019-05-16T12:22:41.496Z,99228.72
2019-05-16T12:25:10.314Z,99230.92
2019-05-16T12:27:42.341Z,99229.69
2019-05-16T12:30:13.802Z,99238.05
2019-05-16T12:32:40.481Z,99227.90
2019-05-16T12:35:09.519Z,99220.27
2019-05-16T12:37:37.938Z,99219.59
2019-05-16T12:40:10.730Z,99211.83
2019-05-16T12:42:39.184Z,99214.70
2019-05-16T12:45:08.261Z,99219.23
2019-05-16T12:47:37.562Z,99198.06
2019-05-16T12:50:09.017Z,99203.60
2019-05-16T12:52:38.429Z,99200.94
2019-05-16T12:55:10.405Z,99196.02
2019-05-16T12:57:38.815Z,99203.10
2019-05-16T13:00:08.600Z,99197.67
2019-05-16T13:02:38.369Z,99198.30
2019-05-16T13:05:08.213Z,99204.13
2019-05-16T13:07:37.667Z,99195.03
2019-05-16T13:10:07.336Z,99193.19
2019-05-16T13:12:37.770Z,99184.05
2019-05-16T13:15:07.708Z,99179.23
2019-05-16T13:17:37.377Z,99168.55
2019-05-16T13:20:07.787Z,99163.77
2019-05-16T13:22:38.431Z,99170.45
2019-05-16T13:25:08.676Z,99152.25
2019-05-16T13:27:37.610Z,99152.25
2019-05-16T13:30:11.151Z,99147.37
2019-05-16T13:32:39.521Z,99150.08
2019-05-16T13:35:08.257Z,99150.18
2019-05-16T13:37:36.663Z,99145.45
2019-05-16T13:40:08.935Z,99132.34
2019-05-16T13:42:37.344Z,99127.22
2019-05-16T13:45:09.140Z,99128.67
2019-05-16T13:47:37.911Z,99128.37
2019-05-16T13:50:12.060Z,99125.88
2019-05-16T13:52:39.962Z,99113.28
2019-05-16T13:55:08.997Z,99106.40
2019-05-16T13:57:37.723Z,99095.08
2019-05-16T14:00:08.499Z,99096.27
2019-05-16T14:02:37.899Z,99096.27
2019-05-16T14:05:08.034Z,99098.16
2019-05-16T14:07:37.701Z,99093.65
2019-05-16T14:10:07.914Z,99096.88
2019-05-16T14:12:36.812Z,99099.01
2019-05-16T14:15:10.610Z,99087.55
2019-05-16T14:17:39.001Z,99086.17
2019-05-16T14:20:14.441Z,99092.72
2019-05-16T14:22:38.413Z,99086.55
2019-05-16T14:25:07.452Z,99085.41
2019-05-16T14:27:38.248Z,99079.24
2019-05-16T14:30:08.530Z,99067.03
2019-05-16T14:32:41.901Z,99066.25
2019-05-16T14:35:08.622Z,99055.32
2019-05-16T14:37:38.098Z,99055.89
2019-05-16T14:40:08.399Z,99050.50
2019-05-16T14:42:38.675Z,99044.87
2019-05-16T14:45:12.692Z,99047.95
2019-05-16T14:47:40.001Z,99043.08
2019-05-16T14:50:12.877Z,99046.80
2019-05-16T14:52:38.695Z,99039.76
2019-05-16T14:55:07.483Z,99041.47
2019-05-16T14:57:36.884Z,99035.47
2019-05-16T15:00:08.510Z,99024.05
2019-05-16T15:02:38.529Z,99026.22
2019-05-16T15:05:08.228Z,99029.83
2019-05-16T15:07:37.445Z,99023.56
2019-05-16T15:10:08.270Z,99023.24
2019-05-16T15:12:37.533Z,99015.31
2019-05-16T15:15:20.140Z,99008.14
2019-05-16T15:17:40.103Z,99008.38
2019-05-16T15:20:09.434Z,98998.42
2019-05-16T15:22:38.573Z,99004.81
2019-05-16T15:25:08.210Z,98999.33
2019-05-16T15:27:37.270Z,98991.42
2019-05-16T15:30:08.538Z,98995.72
2019-05-16T15:32:38.527Z,98980.08
2019-05-16T15:35:08.715Z,98984.28
2019-05-16T15:37:37.691Z,98989.84
2019-05-16T15:40:08.852Z,98986.94
2019-05-16T15:42:37.556Z,98979.05
2019-05-16T15:45:07.798Z,98986.24
2019-05-16T15:47:37.436Z,98979.48
2019-05-16T15:50:08.446Z,98979.28
2019-05-16T15:52:38.342Z,98976.28
2019-05-16T15:55:10.082Z,98974.25
2019-05-16T15:57:38.866Z,98973.57
2019-05-16T16:00:10.741Z,98976.77
2019-05-16T16:02:39.389Z,98967.59
2019-05-16T16:05:09.019Z,98965.28
2019-05-16T16:07:38.213Z,98958.91
2019-05-16T16:10:07.780Z,98959.55
2019-05-16T16:12:37.566Z,98951.22
2019-05-16T16:15:07.685Z,98949.44
2019-05-16T16:17:38.093Z,98949.83
2019-05-16T16:20:10.265Z,98952.89
2019-05-16T16:22:37.906Z,98950.13
2019-05-16T16:25:07.855Z,98946.66
2019-05-16T16:27:36.315Z,98950.66
2019-05-16T16:30:07.193Z,98943.03
2019-05-16T16:32:38.017Z,98950.27
2019-05-16T16:35:07.913Z,98946.28
2019-05-16T16:37:37.854Z,98940.17
2019-05-16T16:40:10.899Z,98934.73
2019-05-16T16:42:37.639Z,98928.38
2019-05-16T16:45:08.432Z,98934.48
2019-05-16T16:47:37.773Z,98927.82
2019-05-16T16:50:08.091Z,98934.59
2019-05-16T16:52:37.895Z,98936.21
2019-05-16T16:55:07.627Z,98938.00
2019-05-16T16:57:38.420Z,98932.02
2019-05-16T17:00:07.844Z,98936.66
2019-05-16T17:02:37.334Z,98931.00
2019-05-16T17:05:11.670Z,98934.56
2019-05-16T17:07:37.717Z,98930.65
2019-05-16T17:10:08.239Z,98933.37
2019-05-16T17:12:41.380Z,98924.64
2019-05-16T17:15:09.195Z,98921.58
2019-05-16T17:17:37.820Z,98920.20
2019-05-16T17:20:07.984Z,98916.05
2019-05-16T17:22:37.703Z,98915.22
2019-05-16T17:25:08.461Z,98910.83
2019-05-16T17:27:37.652Z,98911.96
2019-05-16T17:30:18.220Z,98916.05
2019-05-16T17:32:46.678Z,98910.78
2019-05-16T17:35:18.649Z,98909.50
2019-05-16T17:37:48.211Z,98914.17
2019-05-16T17:40:19.053Z,98917.52
2019-05-16T17:42:47.971Z,98908.45
2019-05-16T17:45:18.374Z,98907.78
2019-05-16T17:47:47.002Z,98908.41
2019-05-16T17:50:17.174Z,98912.15
2019-05-16T17:52:47.554Z,98913.27
2019-05-16T17:55:17.290Z,98908.75
2019-05-16T17:57:46.136Z,98908.49
2019-05-16T18:00:24.405Z,98907.96
2019-05-16T18:02:46.559Z,98908.58
2019-05-16T18:05:17.004Z,98907.43
2019-05-16T18:07:47.393Z,98906.77
2019-05-16T18:10:17.848Z,98909.32
2019-05-16T18:12:47.955Z,98903.06
2019-05-16T18:15:19.498Z,98912.00
2019-05-16T18:17:47.888Z,98900.65
2019-05-16T18:20:16.547Z,98898.75
2019-05-16T18:22:47.043Z,98900.65
2019-05-16T18:25:16.399Z,98907.89
2019-05-16T18:27:44.901Z,98909.30
2019-05-16T18:30:16.482Z,98909.30
2019-05-16T18:32:44.649Z,98898.00
2019-05-16T18:35:13.385Z,98910.08
2019-05-16T18:37:41.805Z,98905.40
2019-05-16T18:40:10.541Z,98904.96
2019-05-16T18:42:38.938Z,98912.08
2019-05-16T18:45:08.497Z,98911.31
2019-05-16T18:47:37.891Z,98911.43
2019-05-16T18:50:08.406Z,98911.11
2019-05-16T18:52:37.648Z,98902.89
2019-05-16T18:55:08.464Z,98918.05
2019-05-16T18:57:37.753Z,98908.58
2019-05-16T19:00:10.869Z,98910.02
2019-05-16T19:02:38.472Z,98912.30
2019-05-16T19:05:07.517Z,98906.70
2019-05-16T19:07:36.912Z,98909.84
2019-05-16T19:10:08.111Z,98901.10
2019-05-16T19:12:37.398Z,98900.81
2019-05-16T19:15:07.877Z,98899.70
2019-05-16T19:17:36.413Z,98896.30
2019-05-16T19:20:06.884Z,98902.67
2019-05-16T19:22:37.142Z,98901.96
2019-05-16T19:25:07.215Z,98895.16
2019-05-16T19:27:36.962Z,98897.47
2019-05-16T19:30:07.803Z,98898.02
2019-05-16T19:32:37.278Z,98897.23
2019-05-16T19:35:07.592Z,98906.92
2019-05-16T19:37:40.403Z,98903.39
2019-05-16T19:40:08.660Z,98905.63
2019-05-16T19:42:37.140Z,98901.81
2019-05-16T19:45:09.623Z,98903.55
2019-05-16T19:47:41.134Z,98899.87
2019-05-16T19:50:09.279Z,98903.37
2019-05-16T19:52:37.727Z,98901.09
2019-05-16T19:55:09.412Z,98908.81
2019-05-16T19:57:37.796Z,98908.51
2019-05-16T20:00:08.990Z,98910.45
2019-05-16T20:02:37.454Z,98910.09
2019-05-16T20:05:09.072Z,98914.12
2019-05-16T20:07:38.092Z,98914.64
2019-05-16T20:10:09.576Z,98913.56
2019-05-16T20:12:38.199Z,98922.70
2019-05-16T20:15:11.906Z,98920.44
2019-05-16T20:17:50.855Z,98918.50
2019-05-16T20:20:10.158Z,98908.22
2019-05-16T20:22:38.850Z,98914.09
2019-05-16T20:25:07.875Z,98909.79
2019-05-16T20:27:36.928Z,98919.50
2019-05-16T20:30:07.215Z,98910.73
2019-05-16T20:32:37.110Z,98910.23
2019-05-16T20:35:09.010Z,98908.05
2019-05-16T20:37:37.751Z,98902.39
2019-05-16T20:40:09.304Z,98899.38
2019-05-16T20:42:36.986Z,98902.09
2019-05-16T20:45:08.335Z,98906.64
2019-05-16T20:47:36.732Z,98905.95
2019-05-16T20:50:09.087Z,98899.08
2019-05-16T20:52:38.195Z,98902.55
2019-05-16T20:55:07.455Z,98900.73
2019-05-16T20:57:37.613Z,98902.45
2019-05-16T21:00:08.380Z,98898.89
2019-05-16T21:02:37.786Z,98898.86
2019-05-16T21:05:07.377Z,98893.08
2019-05-16T21:07:37.604Z,98897.05
2019-05-16T21:10:08.818Z,98905.35
2019-05-16T21:12:40.353Z,98899.66
2019-05-16T21:15:10.002Z,98898.75
2019-05-16T21:17:38.376Z,98896.59
2019-05-16T21:20:07.647Z,98897.98
2019-05-16T21:22:37.118Z,98898.93
2019-05-16T21:25:07.115Z,98898.97
2019-05-16T21:27:37.839Z,98898.19
2019-05-16T21:30:10.148Z,98896.47
2019-05-16T21:32:38.540Z,98899.14
2019-05-16T21:35:10.736Z,98887.70
2019-05-16T21:37:39.154Z,98883.26
2019-05-16T21:40:08.384Z,98879.37
2019-05-16T21:42:36.783Z,98872.38
2019-05-16T21:45:07.552Z,98879.89
2019-05-16T21:47:37.007Z,98882.56
2019-05-16T21:50:09.747Z,98873.80
2019-05-16T21:52:38.168Z,98872.52
2019-05-16T21:55:10.983Z,98875.20
2019-05-16T21:57:39.390Z,98872.17
2019-05-16T22:00:15.013Z,98868.20
2019-05-16T22:02:43.782Z,98877.41
2019-05-16T22:05:12.415Z,98869.02
2019-05-16T22:07:41.014Z,98864.19
2019-05-16T22:10:09.645Z,98865.92
2019-05-16T22:12:38.491Z,98867.69
2019-05-16T22:15:07.211Z,98865.50
2019-05-16T22:17:36.686Z,98859.77
2019-05-16T22:20:07.519Z,98859.78
2019-05-16T22:22:38.243Z,98851.46
2019-05-16T22:25:07.726Z,98848.86
2019-05-16T22:27:36.260Z,98848.44
2019-05-16T22:30:07.781Z,98842.74
2019-05-16T22:32:36.392Z,98836.59
2019-05-16T22:35:08.054Z,98836.66
2019-05-16T22:37:49.434Z,98838.84
2019-05-16T22:40:07.283Z,98830.52
2019-05-16T22:42:37.469Z,98822.63
2019-05-16T22:45:08.971Z,98822.71
2019-05-16T22:47:37.743Z,98818.81
2019-05-16T22:50:09.632Z,98810.95
2019-05-16T22:52:38.291Z,98812.27
2019-05-16T22:55:08.025Z,98807.47
2019-05-16T22:57:36.432Z,98803.03
2019-05-16T23:00:11.577Z,98801.29
2019-05-16T23:02:39.988Z,98803.93
2019-05-16T23:05:08.711Z,98801.31
2019-05-16T23:07:37.132Z,98804.00
2019-05-16T23:10:07.330Z,98799.20
2019-05-16T23:12:37.186Z,98798.30
2019-05-16T23:15:06.730Z,98795.28
2019-05-16T23:17:37.336Z,98793.12
2019-05-16T23:20:07.242Z,98789.61
2019-05-16T23:22:36.707Z,98795.28
2019-05-16T23:25:06.802Z,98790.87
2019-05-16T23:27:36.754Z,98790.80
2019-05-16T23:30:08.714Z,98791.25
2019-05-16T23:32:37.111Z,98792.98
2019-05-16T23:35:07.443Z,98793.02
2019-05-16T23:37:37.074Z,98790.84
2019-05-16T23:40:06.436Z,98789.09
2019-05-16T23:42:36.921Z,98779.06
2019-05-16T23:45:09.861Z,98784.81
2019-05-16T23:47:38.258Z,98776.00
2019-05-16T23:50:08.134Z,98767.20
2019-05-16T23:52:36.983Z,98770.30
2019-05-16T23:55:08.569Z,98764.98
2019-05-16T23:57:37.554Z,98757.50
